Airfield :
LOGIN :

Register | Disclaimer

   EN    FR    IT 

 










Legend :    VFR   Marginal VFR   IFR   Intensive IFR   Very Intensive IFR
Visi :
Ceiling :
>= 8 km
>= 3000ft
5 to 8 km
1000 to 3000 ft
1500m to 5 km
500 to 1000 ft
800 to 1500m
200 to 500 ft
< 800m
< 200 ft
Symbols :   Thunderstorms  Fog  Heavy snow  Heavy precipitations  Wind > 20 kt
SIGMETs :     Misc.  Thunderstorms  Icing  Turbulence  Mountain Waves  Volcanic Ashes







- Airport Elevation : 479 ft
- IATA code : DOL
- Download approach charts


LFRG - Deauville

CURRENT METAR :
  • 242130Z AUTO 01010KT 9999 ///CB 17/13 Q1016

EXPIRED METARs :
  • 242100Z AUTO 01007KT 340V040 9999 ///TCU 17/14 Q1017
  • 242030Z AUTO 01008KT 340V040 CAVOK 17/14 Q1017
  • 242000Z AUTO 36007KT 320V040 CAVOK 17/15 Q1017 TEMPO VRB15G25KT 2000 TSRAGR BKN008 BKN060CB
  • 241930Z AUTO 03007KT 9999 ///TCU 17/15 Q1017 TEMPO VRB15G25KT 2000 TSRAGR BKN008 BKN060CB
  • 241900Z AUTO 34004KT 290V020 9999 ///TCU 17/16 Q1018 TEMPO VRB15G25KT 2000 TSRAGR BKN008 BKN060CB

TAF TAF LFRG
Valid from the 24 at 15:00 until the 25 at 00:00 UTC


241400Z 2415/2424 VRB05KT CAVOK
TEMPO 2415/2424 4000 SHRA BKN008 BKN060CB
PROB40
TEMPO 2419/2424 VRB15G25KT 2000 TSRAGR BKN005
ATIS : +33 2 31 65 65 36
No reported NOTAMs for that airfield.
2 SIGMETs reported for the Paris FIR (LFFF) :
 
Embedded thunderstorms and hail
LFFF SIGMET 2 VALID 242300/250300 LFPW
LFFF PARIS FIR/UIR EMBD TSGR FCST WI N4830 W00015 - N5000 W00015 - N5115 E00200 - N5115 E00215 - N4830 E00045 - N4830 W00015 TOP FL380 MOV NE 20KT NC=
Embedded thunderstorms and hail
LFFF SIGMET 1 VALID 241900/242300 LFPW
LFFF PARIS FIR/UIR EMBD TSGR OBS WI N4715 W00015 - N4915 W00015 - N4800 E00045 - N4715 W00015 TOP FL360 MOV N 20KT INTSF=



MET'MAP, your aeronautical weather chart ! - Copyright ORBIFLY December 2007 - Disclaimer

ORBIFLY MET'MAP TEAM :

Programming & Development : Alexandra Zaïnal
Concept & Development : Baudouin d'Aumeries
Co-Development & Prog : Marc-Olivier Méhu
Technical & hardware support : Manuel Goepfert

Contact : metmap@orbifly.com




SOURCES & CREDITS :

   NOAA